Bagley, North Carolina
Current Conditions -  °F | °C
As of 1:35 AM on Monday 24 Nov 2014 (Local Time) from KGWW Reporting Station
Scattered Clouds Scattered Clouds  
Wind Chill: 66°   Ceiling: Unl
Heat Index: 66°   Visibility: 10mi
Dew Point: 65°   Wind: 12mph
Humidity: 96%   Direction: 160°SSE
Pressure: 29.8"   Gusts: 17mph
Location:  35.6072°N, 78.1393°W
Report Text: KGWW 240635Z AUTO 16010G15KT 10SM SCT009 SCT080 19/19 A2980 RMK AO2 T01910185
Loading
Personal Weather Stations






























Interactive Weather Map New forecast layout! Learn more

10-Day Weather Forecast

Advertisements
Track Severe Weather on mobile